createdAt,value
2023-05-06T00:00:34.627Z,2.07
2023-05-06T00:03:02.689Z,2.40
2023-05-06T00:05:30.570Z,2.13
2023-05-06T00:07:59.907Z,1.97
2023-05-06T00:10:27.734Z,2.00
2023-05-06T00:12:55.605Z,1.80
2023-05-06T00:15:24.067Z,2.10
2023-05-06T00:17:51.977Z,1.83
2023-05-06T00:20:19.851Z,1.90
2023-05-06T00:22:47.862Z,2.03
2023-05-06T00:25:17.064Z,2.20
2023-05-06T00:27:44.873Z,2.23
2023-05-06T00:30:13.821Z,2.10
2023-05-06T00:32:41.661Z,2.00
2023-05-06T00:35:10.543Z,1.77
2023-05-06T00:37:38.706Z,2.03
2023-05-06T00:40:09.907Z,1.90
2023-05-06T00:42:39.423Z,2.23
2023-05-06T00:45:08.504Z,2.30
2023-05-06T00:47:36.854Z,2.13
2023-05-06T00:50:05.443Z,1.90
2023-05-06T00:52:33.453Z,2.17
2023-05-06T00:55:01.341Z,2.33
2023-05-06T00:57:29.438Z,2.30
2023-05-06T00:59:58.653Z,2.57
2023-05-06T01:02:36.203Z,3.00
2023-05-06T01:05:12.523Z,3.03
2023-05-06T01:07:46.085Z,3.13
2023-05-06T01:10:22.492Z,2.87
2023-05-06T01:12:59.964Z,3.10
2023-05-06T01:15:35.379Z,2.83
2023-05-06T01:18:09.621Z,3.60
2023-05-06T01:20:38.968Z,2.83
2023-05-06T01:23:13.202Z,3.03
2023-05-06T01:25:41.784Z,3.17
2023-05-06T01:28:11.722Z,3.33
2023-05-06T01:30:46.253Z,2.90
2023-05-06T01:33:20.207Z,2.77
2023-05-06T01:35:56.119Z,2.83
2023-05-06T01:38:32.389Z,2.43
2023-05-06T01:41:03.228Z,2.50
2023-05-06T01:43:36.029Z,2.60
2023-05-06T01:46:04.729Z,2.60
2023-05-06T01:48:37.799Z,2.57
2023-05-06T01:51:06.133Z,2.60
2023-05-06T01:53:35.842Z,2.90
2023-05-06T01:56:03.948Z,3.17
2023-05-06T01:58:32.008Z,2.43
2023-05-06T02:00:59.953Z,2.63
2023-05-06T02:03:28.223Z,3.40
2023-05-06T02:05:56.750Z,2.57
2023-05-06T02:08:24.617Z,3.50
2023-05-06T02:10:53.839Z,2.83
2023-05-06T02:13:21.987Z,3.03
2023-05-06T02:15:53.760Z,3.10
2023-05-06T02:18:21.688Z,2.93
2023-05-06T02:20:49.652Z,3.17
2023-05-06T02:23:17.641Z,3.30
2023-05-06T02:25:45.624Z,3.83
2023-05-06T02:28:15.042Z,2.53
2023-05-06T02:30:42.869Z,3.03
2023-05-06T02:33:10.692Z,3.10
2023-05-06T02:35:39.026Z,2.97
2023-05-06T02:38:06.850Z,2.77
2023-05-06T02:40:34.718Z,3.20
2023-05-06T02:43:02.844Z,2.60
2023-05-06T02:45:32.215Z,3.50
2023-05-06T02:48:00.221Z,3.17
2023-05-06T02:50:28.370Z,3.10
2023-05-06T02:52:56.241Z,3.53
2023-05-06T02:55:24.108Z,3.50
2023-05-06T02:57:52.115Z,3.13
2023-05-06T03:00:20.408Z,3.30
2023-05-06T03:02:49.666Z,3.23
2023-05-06T03:05:17.790Z,2.93
2023-05-06T03:07:45.596Z,3.20
2023-05-06T03:10:13.542Z,3.20
2023-05-06T03:12:41.606Z,3.07
2023-05-06T03:15:10.523Z,3.83
2023-05-06T03:17:38.705Z,3.30
2023-05-06T03:20:10.282Z,3.13
2023-05-06T03:22:38.097Z,3.17
2023-05-06T03:25:06.902Z,3.37
2023-05-06T03:27:35.088Z,3.07
2023-05-06T03:30:02.930Z,2.90
2023-05-06T03:32:33.308Z,3.30
2023-05-06T03:35:01.343Z,3.07
2023-05-06T03:37:30.906Z,3.73
2023-05-06T03:39:58.753Z,3.07
2023-05-06T03:42:27.216Z,3.70
2023-05-06T03:44:55.088Z,3.50
2023-05-06T03:47:22.991Z,3.53
2023-05-06T03:49:51.340Z,4.20
2023-05-06T03:52:19.560Z,4.03
2023-05-06T03:54:48.803Z,3.90
2023-05-06T03:57:17.124Z,3.97
2023-05-06T03:59:44.958Z,3.90
2023-05-06T04:02:12.948Z,3.80
2023-05-06T04:04:41.060Z,3.67
2023-05-06T04:07:09.119Z,3.40
2023-05-06T04:09:37.014Z,4.20
2023-05-06T04:12:07.107Z,3.93
2023-05-06T04:14:34.951Z,3.87
2023-05-06T04:17:02.856Z,3.70
2023-05-06T04:19:32.235Z,4.40
2023-05-06T04:22:00.062Z,3.60
2023-05-06T04:24:29.531Z,4.23
2023-05-06T04:26:57.476Z,3.93
2023-05-06T04:29:27.111Z,3.73
2023-05-06T04:31:55.532Z,3.50
2023-05-06T04:34:25.242Z,3.63
2023-05-06T04:36:54.237Z,3.87
2023-05-06T04:39:22.145Z,3.57
2023-05-06T04:41:50.091Z,3.47
2023-05-06T04:44:19.522Z,3.77
2023-05-06T04:46:48.835Z,3.80
2023-05-06T04:49:16.820Z,3.70
2023-05-06T04:51:44.646Z,3.47
2023-05-06T04:54:12.506Z,3.27
2023-05-06T04:56:40.480Z,3.40
2023-05-06T04:59:08.317Z,3.40
2023-05-06T05:01:36.278Z,3.13
2023-05-06T05:04:06.958Z,2.97
2023-05-06T05:06:34.812Z,2.83
2023-05-06T05:09:02.721Z,2.93
2023-05-06T05:11:30.850Z,2.97
2023-05-06T05:14:00.912Z,2.67
2023-05-06T05:16:29.951Z,2.30
2023-05-06T05:18:58.129Z,1.90
2023-05-06T05:21:27.725Z,1.83
2023-05-06T05:23:55.611Z,2.07
2023-05-06T05:26:23.634Z,1.63
2023-05-06T05:28:51.480Z,1.50
2023-05-06T05:31:19.364Z,1.83
2023-05-06T05:33:47.588Z,1.20
2023-05-06T05:36:16.373Z,1.00
2023-05-06T05:38:45.611Z,1.20
2023-05-06T05:41:14.945Z,0.80
2023-05-06T05:43:44.771Z,0.60
2023-05-06T05:46:12.655Z,1.00
2023-05-06T05:48:40.949Z,0.87
2023-05-06T05:51:08.786Z,0.80
2023-05-06T05:53:36.653Z,0.93
2023-05-06T05:56:06.843Z,0.70
2023-05-06T05:58:35.233Z,1.00
2023-05-06T06:01:04.238Z,1.00
2023-05-06T06:03:39.234Z,0.83
2023-05-06T06:06:07.588Z,0.80
2023-05-06T06:08:35.548Z,0.83
2023-05-06T06:11:06.912Z,0.60
2023-05-06T06:13:34.761Z,1.00
2023-05-06T06:16:02.697Z,0.80
2023-05-06T06:18:30.821Z,1.13
2023-05-06T06:20:58.750Z,0.77
2023-05-06T06:23:26.616Z,0.77
2023-05-06T06:25:54.802Z,0.90
2023-05-06T06:28:24.118Z,0.90
2023-05-06T06:30:51.934Z,1.00
2023-05-06T06:33:19.906Z,0.93
2023-05-06T06:35:47.985Z,1.00
2023-05-06T06:38:15.841Z,0.80
2023-05-06T06:40:43.837Z,0.93
2023-05-06T06:43:11.787Z,0.90
2023-05-06T06:45:40.982Z,0.93
2023-05-06T06:48:09.057Z,1.10
2023-05-06T06:50:36.903Z,1.10
2023-05-06T06:53:06.249Z,1.10
2023-05-06T06:55:34.545Z,0.83
2023-05-06T06:58:02.434Z,1.03
2023-05-06T07:00:30.318Z,1.20
2023-05-06T07:02:59.682Z,1.00
2023-05-06T07:05:28.051Z,0.80
2023-05-06T07:07:55.956Z,0.80
2023-05-06T07:10:24.039Z,0.77
2023-05-06T07:12:51.977Z,0.70
2023-05-06T07:15:19.987Z,0.70
2023-05-06T07:17:48.474Z,0.97
2023-05-06T07:20:18.040Z,0.93
2023-05-06T07:22:45.958Z,0.90
2023-05-06T07:25:14.255Z,1.00
2023-05-06T07:27:42.120Z,0.75
2023-05-06T07:30:10.724Z,0.82
2023-05-06T07:32:38.706Z,0.80
2023-05-06T07:35:07.018Z,1.00
2023-05-06T07:37:36.274Z,0.90
2023-05-06T07:40:04.960Z,0.90
2023-05-06T07:42:32.876Z,0.80
2023-05-06T07:45:00.737Z,0.90
2023-05-06T07:47:31.477Z,0.80
2023-05-06T07:50:00.362Z,0.93
2023-05-06T07:52:28.260Z,0.93
2023-05-06T07:54:57.898Z,0.93
2023-05-06T07:57:25.773Z,1.00
2023-05-06T07:59:54.253Z,0.85
2023-05-06T08:02:22.530Z,0.98
2023-05-06T08:04:51.877Z,1.00
2023-05-06T08:07:20.032Z,1.02
2023-05-06T08:09:48.114Z,1.20
2023-05-06T08:12:17.651Z,0.75
2023-05-06T08:14:45.627Z,1.00
2023-05-06T08:17:14.229Z,1.60
2023-05-06T08:19:42.133Z,1.00
2023-05-06T08:22:10.012Z,1.00
2023-05-06T08:24:38.210Z,0.82
2023-05-06T08:27:06.096Z,0.85
2023-05-06T08:29:35.453Z,0.90
2023-05-06T08:32:03.421Z,0.77
2023-05-06T08:34:31.622Z,0.90
2023-05-06T08:36:59.540Z,0.85
2023-05-06T08:39:27.951Z,0.90
2023-05-06T08:41:57.483Z,0.90
2023-05-06T08:44:26.826Z,0.82
2023-05-06T08:46:56.472Z,0.80
2023-05-06T08:49:24.679Z,0.90
2023-05-06T08:51:53.476Z,0.85
2023-05-06T08:54:24.436Z,1.10
2023-05-06T08:56:54.916Z,0.82
2023-05-06T08:59:25.687Z,0.88
2023-05-06T09:01:55.183Z,1.10
2023-05-06T09:04:23.155Z,0.77
2023-05-06T09:06:51.105Z,0.82
2023-05-06T09:09:19.117Z,1.00
2023-05-06T09:11:54.102Z,0.95
2023-05-06T09:14:22.988Z,1.02
2023-05-06T09:16:52.742Z,1.08
2023-05-06T09:19:23.449Z,1.30
2023-05-06T09:21:52.696Z,0.93
2023-05-06T09:24:21.925Z,0.75
2023-05-06T09:26:50.620Z,1.08
2023-05-06T09:29:18.623Z,1.17
2023-05-06T09:31:47.782Z,0.88
2023-05-06T09:34:17.659Z,1.00
2023-05-06T09:36:46.858Z,0.95
2023-05-06T09:39:14.702Z,1.13
2023-05-06T09:41:44.351Z,0.90
2023-05-06T09:44:12.786Z,1.02
2023-05-06T09:46:41.241Z,0.90
2023-05-06T09:49:10.415Z,1.10
2023-05-06T09:51:38.779Z,1.10
2023-05-06T09:54:08.688Z,1.50
2023-05-06T09:56:37.424Z,1.10
2023-05-06T09:59:06.341Z,1.20
2023-05-06T10:01:37.531Z,1.05
2023-05-06T10:04:10.012Z,1.33
2023-05-06T10:06:40.733Z,1.02
2023-05-06T10:09:10.704Z,1.23
2023-05-06T10:11:39.833Z,1.20
2023-05-06T10:14:09.273Z,1.17
2023-05-06T10:16:40.284Z,0.85
2023-05-06T10:19:09.587Z,0.80
2023-05-06T10:21:40.884Z,0.95
2023-05-06T10:24:14.578Z,0.90
2023-05-06T10:26:46.705Z,0.73
2023-05-06T10:29:15.106Z,0.90
2023-05-06T10:31:49.896Z,0.95
2023-05-06T10:34:21.146Z,0.90
2023-05-06T10:36:52.121Z,1.42
2023-05-06T10:39:22.253Z,0.90
2023-05-06T10:41:50.631Z,1.00
2023-05-06T10:44:18.691Z,0.90
2023-05-06T10:46:59.054Z,1.00
2023-05-06T10:49:27.236Z,1.23
2023-05-06T10:52:14.597Z,1.15
2023-05-06T10:54:51.915Z,2.60
2023-05-06T10:57:20.905Z,1.40
2023-05-06T10:59:49.790Z,1.13
2023-05-06T11:02:20.386Z,1.15
2023-05-06T11:04:53.231Z,1.10
2023-05-06T11:07:25.535Z,1.05
2023-05-06T11:09:59.384Z,1.08
2023-05-06T11:12:51.420Z,1.00
2023-05-06T11:15:26.176Z,0.80
2023-05-06T11:17:56.461Z,1.70
2023-05-06T11:20:26.004Z,1.10
2023-05-06T11:22:54.400Z,1.20
2023-05-06T11:25:42.536Z,0.93
2023-05-06T11:28:11.961Z,0.80
2023-05-06T11:30:42.552Z,1.05
2023-05-06T11:33:15.705Z,1.52
2023-05-06T11:35:43.708Z,0.90
2023-05-06T11:38:11.623Z,0.90
2023-05-06T11:40:42.207Z,0.90
2023-05-06T11:43:14.322Z,0.88
2023-05-06T11:45:45.030Z,1.42
2023-05-06T11:48:13.738Z,0.85
2023-05-06T11:50:46.192Z,0.82
2023-05-06T11:53:16.033Z,1.30
2023-05-06T11:55:45.965Z,1.00
2023-05-06T11:58:16.608Z,1.00
2023-05-06T12:00:51.395Z,1.10
2023-05-06T12:03:20.111Z,0.93
2023-05-06T12:05:48.993Z,0.80
2023-05-06T12:08:26.881Z,1.00
2023-05-06T12:11:00.875Z,0.70
2023-05-06T12:13:29.625Z,1.00
2023-05-06T12:16:00.463Z,1.00
2023-05-06T12:18:29.212Z,0.75
2023-05-06T12:20:57.808Z,0.98
2023-05-06T12:23:25.809Z,0.95
2023-05-06T12:26:04.221Z,1.00
2023-05-06T12:28:33.562Z,1.02
2023-05-06T12:31:02.058Z,1.42
2023-05-06T12:33:44.847Z,1.00
2023-05-06T12:36:13.304Z,1.13
2023-05-06T12:38:51.372Z,1.08
2023-05-06T12:41:21.330Z,0.98
2023-05-06T12:43:49.290Z,1.10
2023-05-06T12:46:18.148Z,0.98
2023-05-06T12:48:58.118Z,0.80
2023-05-06T12:51:26.913Z,1.40
2023-05-06T12:53:55.145Z,1.00
2023-05-06T12:56:24.618Z,1.02
2023-05-06T12:59:03.374Z,1.00
2023-05-06T13:01:31.715Z,0.82
2023-05-06T13:03:59.799Z,0.90
2023-05-06T13:06:27.983Z,1.08
2023-05-06T13:08:55.968Z,0.73
2023-05-06T13:11:25.880Z,0.85
2023-05-06T13:13:53.899Z,0.90
2023-05-06T13:16:21.779Z,0.80
2023-05-06T13:18:50.584Z,0.90
2023-05-06T13:21:18.628Z,1.30
2023-05-06T13:23:48.069Z,1.15
2023-05-06T13:26:16.050Z,1.30
2023-05-06T13:28:45.610Z,0.88
2023-05-06T13:31:13.517Z,1.58
2023-05-06T13:33:41.560Z,1.08
2023-05-06T13:36:10.014Z,1.40
2023-05-06T13:38:37.843Z,0.70
2023-05-06T13:41:06.974Z,1.02
2023-05-06T13:43:34.864Z,0.80
2023-05-06T13:46:04.099Z,1.00
2023-05-06T13:48:32.081Z,1.08
2023-05-06T13:51:00.028Z,0.90
2023-05-06T13:53:27.897Z,0.80
2023-05-06T13:55:55.863Z,0.80
2023-05-06T13:58:23.876Z,0.90
2023-05-06T14:00:51.792Z,1.00
2023-05-06T14:03:21.096Z,1.05
2023-05-06T14:05:49.209Z,1.30
2023-05-06T14:08:18.088Z,1.00
2023-05-06T14:10:46.191Z,1.20
2023-05-06T14:13:14.331Z,0.82
2023-05-06T14:15:42.256Z,0.90
2023-05-06T14:18:10.217Z,0.90
2023-05-06T14:20:39.568Z,0.88
2023-05-06T14:23:07.611Z,0.70
2023-05-06T14:25:35.647Z,0.80
2023-05-06T14:28:03.558Z,1.05
2023-05-06T14:30:32.404Z,1.42
2023-05-06T14:33:01.522Z,0.93
2023-05-06T14:35:29.483Z,1.05
2023-05-06T14:37:58.717Z,0.90
2023-05-06T14:40:26.768Z,0.98
2023-05-06T14:42:55.228Z,0.95
2023-05-06T14:45:23.052Z,0.90
2023-05-06T14:47:51.743Z,1.30
2023-05-06T14:50:19.765Z,0.80
2023-05-06T14:52:48.257Z,0.80
2023-05-06T14:55:17.664Z,1.00
2023-05-06T14:57:47.036Z,1.00
2023-05-06T15:00:16.016Z,0.90
2023-05-06T15:02:44.150Z,2.05
2023-05-06T15:05:13.383Z,1.20
2023-05-06T15:07:41.781Z,1.75
2023-05-06T15:10:10.208Z,1.00
2023-05-06T15:12:40.210Z,1.10
2023-05-06T15:15:09.679Z,0.60
2023-05-06T15:17:39.482Z,0.90
2023-05-06T15:20:09.213Z,1.00
2023-05-06T15:22:39.362Z,0.98
2023-05-06T15:25:12.416Z,1.30
2023-05-06T15:27:46.145Z,1.13
2023-05-06T15:30:14.633Z,1.05
2023-05-06T15:32:42.532Z,1.20
2023-05-06T15:35:10.925Z,1.40
2023-05-06T15:37:39.121Z,1.10
2023-05-06T15:40:10.365Z,1.10
2023-05-06T15:42:39.340Z,1.13
2023-05-06T15:45:09.724Z,1.00
2023-05-06T15:47:37.556Z,1.40
2023-05-06T15:50:16.433Z,1.10
2023-05-06T15:52:53.075Z,0.95
2023-05-06T15:55:21.300Z,1.00
2023-05-06T15:57:49.242Z,1.23
2023-05-06T16:00:18.895Z,0.70
2023-05-06T16:02:47.062Z,0.88
2023-05-06T16:05:15.018Z,0.90
2023-05-06T16:07:43.033Z,1.48
2023-05-06T16:10:11.322Z,1.30
2023-05-06T16:12:39.413Z,0.98
2023-05-06T16:15:08.509Z,1.20
2023-05-06T16:17:38.749Z,0.90
2023-05-06T16:20:09.369Z,1.17
2023-05-06T16:22:40.203Z,1.75
2023-05-06T16:25:08.951Z,1.05
2023-05-06T16:27:36.799Z,1.58
2023-05-06T16:30:05.296Z,1.17
2023-05-06T16:32:33.166Z,1.23
2023-05-06T16:35:02.425Z,0.90
2023-05-06T16:37:30.427Z,3.58
2023-05-06T16:39:58.257Z,1.20
2023-05-06T16:42:26.123Z,1.20
2023-05-06T16:44:54.302Z,1.00
2023-05-06T16:47:24.315Z,3.03
2023-05-06T16:49:52.328Z,1.10
2023-05-06T16:52:22.056Z,1.30
2023-05-06T16:54:51.304Z,2.97
2023-05-06T16:57:19.689Z,0.90
2023-05-06T16:59:47.859Z,0.70
2023-05-06T17:02:15.704Z,0.93
2023-05-06T17:04:43.610Z,0.90
2023-05-06T17:07:12.252Z,1.15
2023-05-06T17:09:41.723Z,1.00
2023-05-06T17:12:10.140Z,2.58
2023-05-06T17:14:38.077Z,1.00
2023-05-06T17:17:06.053Z,0.93
2023-05-06T17:19:34.450Z,0.98
2023-05-06T17:22:02.453Z,1.30
2023-05-06T17:24:30.252Z,1.00
2023-05-06T17:26:59.444Z,1.33
2023-05-06T17:29:27.508Z,0.90
2023-05-06T17:31:55.372Z,1.37
2023-05-06T17:34:23.243Z,1.70
2023-05-06T17:36:51.224Z,1.20
2023-05-06T17:39:19.054Z,2.10
2023-05-06T17:41:46.872Z,1.10
2023-05-06T17:44:17.671Z,0.93
2023-05-06T17:46:46.530Z,0.90
2023-05-06T17:49:16.838Z,1.00
2023-05-06T17:51:46.352Z,1.30
2023-05-06T17:54:14.223Z,1.10
2023-05-06T17:56:49.305Z,1.00
2023-05-06T17:59:21.058Z,0.90
2023-05-06T18:01:49.189Z,0.90
2023-05-06T18:04:17.293Z,1.07
2023-05-06T18:06:45.721Z,1.10
2023-05-06T18:09:13.591Z,1.00
2023-05-06T18:11:41.625Z,0.77
2023-05-06T18:14:09.577Z,0.93
2023-05-06T18:16:39.058Z,0.90
2023-05-06T18:19:06.998Z,0.80
2023-05-06T18:21:36.030Z,1.20
2023-05-06T18:24:15.409Z,1.40
2023-05-06T18:26:46.214Z,0.97
2023-05-06T18:29:14.597Z,0.97
2023-05-06T18:31:43.896Z,1.03
2023-05-06T18:34:12.078Z,1.10
2023-05-06T18:36:40.093Z,1.60
2023-05-06T18:39:09.337Z,0.90
2023-05-06T18:41:37.333Z,1.00
2023-05-06T18:44:05.838Z,0.80
2023-05-06T18:46:33.759Z,1.10
2023-05-06T18:49:03.108Z,1.00
2023-05-06T18:51:32.068Z,1.10
2023-05-06T18:53:59.903Z,0.93
2023-05-06T18:56:28.066Z,1.40
2023-05-06T18:58:55.937Z,1.17
2023-05-06T19:01:25.052Z,1.37
2023-05-06T19:03:53.202Z,1.10
2023-05-06T19:06:22.509Z,1.10
2023-05-06T19:08:50.570Z,1.10
2023-05-06T19:11:19.486Z,1.30
2023-05-06T19:13:47.433Z,1.37
2023-05-06T19:16:15.342Z,1.20
2023-05-06T19:18:43.476Z,1.23
2023-05-06T19:21:11.926Z,1.00
2023-05-06T19:23:41.161Z,1.20
2023-05-06T19:26:11.038Z,1.67
2023-05-06T19:28:39.062Z,1.07
2023-05-06T19:31:09.434Z,1.13
2023-05-06T19:33:37.752Z,1.50
2023-05-06T19:36:06.672Z,1.20
2023-05-06T19:38:35.057Z,1.73
2023-05-06T19:41:04.445Z,1.40
2023-05-06T19:43:32.321Z,1.30
2023-05-06T19:46:00.200Z,1.33
2023-05-06T19:48:28.177Z,1.37
2023-05-06T19:50:56.014Z,1.70
2023-05-06T19:53:24.122Z,1.67
2023-05-06T19:55:52.757Z,1.70
2023-05-06T19:58:22.023Z,1.80
2023-05-06T20:00:49.961Z,1.40
2023-05-06T20:03:18.186Z,1.47
2023-05-06T20:05:46.140Z,1.57
2023-05-06T20:08:13.956Z,1.23
2023-05-06T20:10:41.961Z,1.37
2023-05-06T20:13:12.004Z,1.80
2023-05-06T20:15:41.571Z,1.70
2023-05-06T20:18:09.672Z,1.60
2023-05-06T20:20:37.993Z,1.73
2023-05-06T20:23:05.873Z,1.60
2023-05-06T20:25:34.151Z,2.13
2023-05-06T20:28:03.345Z,1.67
2023-05-06T20:30:31.316Z,1.80
2023-05-06T20:33:01.301Z,1.50
2023-05-06T20:35:29.201Z,1.60
2023-05-06T20:37:57.014Z,1.60
2023-05-06T20:40:25.111Z,1.70
2023-05-06T20:42:52.937Z,1.80
2023-05-06T20:45:21.128Z,1.87
2023-05-06T20:47:49.229Z,1.73
2023-05-06T20:50:18.745Z,1.50
2023-05-06T20:52:47.566Z,1.40
2023-05-06T20:55:16.068Z,1.80
2023-05-06T20:57:44.780Z,1.47
2023-05-06T21:00:14.593Z,1.87
2023-05-06T21:02:43.988Z,1.20
2023-05-06T21:05:12.224Z,1.70
2023-05-06T21:07:41.781Z,1.53
2023-05-06T21:10:11.662Z,1.67
2023-05-06T21:12:39.694Z,1.50
2023-05-06T21:15:09.085Z,1.73
2023-05-06T21:17:37.656Z,1.63
2023-05-06T21:20:06.445Z,2.03
2023-05-06T21:22:34.346Z,1.80
2023-05-06T21:25:05.361Z,1.70
2023-05-06T21:27:33.333Z,2.00
2023-05-06T21:30:01.151Z,1.60
2023-05-06T21:32:33.190Z,1.70
2023-05-06T21:35:04.992Z,1.70
2023-05-06T21:37:32.930Z,1.40
2023-05-06T21:40:04.317Z,1.70
2023-05-06T21:42:33.595Z,1.40
2023-05-06T21:45:01.524Z,1.80
2023-05-06T21:47:29.453Z,2.10
2023-05-06T21:49:57.389Z,1.80
2023-05-06T21:52:25.694Z,1.50
2023-05-06T21:54:53.775Z,1.50
2023-05-06T21:57:21.613Z,1.60
2023-05-06T21:59:52.106Z,1.77
2023-05-06T22:02:20.109Z,1.47
2023-05-06T22:04:48.057Z,1.73
2023-05-06T22:07:16.543Z,1.80
2023-05-06T22:09:44.508Z,2.00
2023-05-06T22:12:12.883Z,2.20
2023-05-06T22:14:41.703Z,1.60
2023-05-06T22:17:12.618Z,1.90
2023-05-06T22:19:41.861Z,2.00
2023-05-06T22:22:10.555Z,2.20
2023-05-06T22:24:38.459Z,2.07
2023-05-06T22:27:06.436Z,1.87
2023-05-06T22:29:35.056Z,1.70
2023-05-06T22:32:03.493Z,2.10
2023-05-06T22:34:32.904Z,1.90
2023-05-06T22:37:01.325Z,2.00
2023-05-06T22:39:29.721Z,1.90
2023-05-06T22:41:57.647Z,1.90
2023-05-06T22:44:25.765Z,2.13
2023-05-06T22:46:54.968Z,2.17
2023-05-06T22:49:23.592Z,1.87
2023-05-06T22:51:52.915Z,2.20
2023-05-06T22:54:20.920Z,2.23
2023-05-06T22:56:48.843Z,1.90
2023-05-06T22:59:17.018Z,1.87
2023-05-06T23:01:45.066Z,2.20
2023-05-06T23:04:13.322Z,2.13
2023-05-06T23:06:41.457Z,2.17
2023-05-06T23:09:11.550Z,1.77
2023-05-06T23:11:39.404Z,2.17
2023-05-06T23:14:08.213Z,2.17
2023-05-06T23:16:36.202Z,2.30
2023-05-06T23:19:04.178Z,2.07
2023-05-06T23:21:32.522Z,2.13
2023-05-06T23:24:01.016Z,2.00
2023-05-06T23:26:30.272Z,2.20
2023-05-06T23:28:58.224Z,2.20
2023-05-06T23:31:26.416Z,2.17
2023-05-06T23:33:54.285Z,2.47
2023-05-06T23:36:22.371Z,2.43
2023-05-06T23:38:50.251Z,2.20
2023-05-06T23:41:18.136Z,2.40
2023-05-06T23:43:47.383Z,1.97
2023-05-06T23:46:15.361Z,2.13
2023-05-06T23:48:43.251Z,2.70
2023-05-06T23:51:11.230Z,2.40
2023-05-06T23:53:39.196Z,2.20
2023-05-06T23:56:07.661Z,2.50
2023-05-06T23:58:35.602Z,2.27
